Terminal Aerodrome Forecast
Issued by NWS

Home | Current Version | Previous Version | Text Only | Print | Product List | Glossary Off
Versions: 1 2 3 4 5 6 7 8 9 10 11 12 13 14 15 16 17 18

610
FTUS43 KFGF 061740
TAFBJI
TAF
KBJI 061740Z 0618/0718 18008KT P6SM BKN080
     FM062300 20013G20KT P6SM BKN080
     FM070600 25014G22KT P6SM OVC025
     FM071100 27015G25KT 4SM -SN OVC012=

USA.gov is the U.S. government's official web portal to all federal, state and local government web resources and services.